createdAt,value
2023-09-27T00:00:21.731Z,96.9
2023-09-27T00:01:52.504Z,97
2023-09-27T00:03:23.121Z,97
2023-09-27T00:04:53.755Z,97.1
2023-09-27T00:06:24.437Z,97
2023-09-27T00:07:54.922Z,97.1
2023-09-27T00:09:25.626Z,97.1
2023-09-27T00:10:56.287Z,97.1
2023-09-27T00:12:26.954Z,96.9
2023-09-27T00:13:57.491Z,97
2023-09-27T00:15:27.973Z,97.1
2023-09-27T00:16:58.604Z,97
2023-09-27T00:18:29.220Z,97
2023-09-27T00:19:59.698Z,97
2023-09-27T00:21:30.186Z,97
2023-09-27T00:23:00.758Z,97
2023-09-27T00:24:31.354Z,97.1
2023-09-27T00:26:01.890Z,97.1
2023-09-27T00:27:32.501Z,97.1
2023-09-27T00:29:03.007Z,97.1
2023-09-27T00:30:33.522Z,97.1
2023-09-27T00:32:04.117Z,97.1
2023-09-27T00:33:34.827Z,97
2023-09-27T00:35:08.172Z,97
2023-09-27T00:36:38.791Z,97
2023-09-27T00:38:09.317Z,97
2023-09-27T00:39:39.918Z,97
2023-09-27T00:41:10.423Z,96.9
2023-09-27T00:41:27.526Z,97
2023-09-27T00:42:58.008Z,97.1
2023-09-27T00:44:28.555Z,97
2023-09-27T00:45:59.064Z,96.9
2023-09-27T00:47:29.678Z,97
2023-09-27T00:49:00.260Z,97
2023-09-27T00:50:30.943Z,97
2023-09-27T00:52:01.404Z,97
2023-09-27T00:53:31.888Z,97
2023-09-27T00:55:02.470Z,96.9
2023-09-27T00:56:33.092Z,96.9
2023-09-27T00:58:03.707Z,97
2023-09-27T00:59:34.379Z,96.9
2023-09-27T01:01:04.853Z,96.9
2023-09-27T01:02:35.516Z,97
2023-09-27T01:04:06.112Z,96.9
2023-09-27T01:05:36.596Z,97.1
2023-09-27T01:07:07.150Z,97
2023-09-27T01:08:37.598Z,97.1
2023-09-27T01:10:08.090Z,97
2023-09-27T01:11:38.953Z,97.1
2023-09-27T01:13:09.519Z,96.9
2023-09-27T01:14:40.079Z,97
2023-09-27T01:16:10.652Z,97.1
2023-09-27T01:17:41.337Z,97
2023-09-27T01:19:12.205Z,97.1
2023-09-27T01:20:42.599Z,97.1
2023-09-27T01:22:13.119Z,97.1
2023-09-27T01:23:43.628Z,97.1
2023-09-27T01:25:14.149Z,97.1
2023-09-27T01:26:45.036Z,97.1
2023-09-27T01:28:15.508Z,97.2
2023-09-27T01:29:46.018Z,97.1
2023-09-27T01:31:16.521Z,97
2023-09-27T01:32:47.206Z,97.1
2023-09-27T01:34:17.898Z,97.1
2023-09-27T01:35:48.312Z,97.1
2023-09-27T01:37:18.869Z,97
2023-09-27T01:38:49.354Z,97
2023-09-27T01:40:20.075Z,97.1
2023-09-27T01:41:50.573Z,97
2023-09-27T01:43:21.474Z,97.1
2023-09-27T01:44:51.954Z,97.1
2023-09-27T01:46:22.433Z,97
2023-09-27T01:47:52.975Z,97.1
2023-09-27T01:49:23.571Z,97
2023-09-27T01:50:54.061Z,96.9
2023-09-27T01:52:24.567Z,97
2023-09-27T01:53:54.991Z,97.1
2023-09-27T01:55:25.433Z,97.1
2023-09-27T01:56:55.962Z,97
2023-09-27T01:58:26.392Z,97.1
2023-09-27T01:59:56.892Z,96.9
2023-09-27T02:03:30.103Z,97.1
2023-09-27T02:05:00.868Z,97
2023-09-27T02:06:31.607Z,97
2023-09-27T02:08:02.088Z,97
2023-09-27T02:09:32.658Z,96.9
2023-09-27T02:11:03.224Z,97
2023-09-27T02:12:33.705Z,97.1
2023-09-27T02:14:04.276Z,97.1
2023-09-27T02:15:35.134Z,97.2
2023-09-27T02:17:05.631Z,97.1
2023-09-27T02:18:36.088Z,97.2
2023-09-27T02:20:06.572Z,97
2023-09-27T02:21:37.022Z,97.1
2023-09-27T02:23:07.508Z,97
2023-09-27T02:24:37.972Z,97
2023-09-27T02:26:08.491Z,96.9
2023-09-27T02:27:38.951Z,97
2023-09-27T02:29:09.510Z,97.1
2023-09-27T02:30:40.121Z,97
2023-09-27T02:32:10.657Z,97.1
2023-09-27T02:33:41.251Z,97.1
2023-09-27T02:35:11.863Z,97.1
2023-09-27T02:36:42.354Z,97.1
2023-09-27T02:38:12.822Z,97.1
2023-09-27T02:39:43.398Z,97
2023-09-27T02:41:13.880Z,97
2023-09-27T02:42:44.427Z,97
2023-09-27T02:44:14.945Z,97.1
2023-09-27T02:45:45.548Z,97.1
2023-09-27T02:47:16.289Z,97.2
2023-09-27T02:48:46.850Z,97.1
2023-09-27T02:50:17.754Z,97.1
2023-09-27T02:51:48.205Z,97.1
2023-09-27T02:53:18.695Z,97.2
2023-09-27T02:54:49.240Z,97.1
2023-09-27T02:56:19.776Z,97.1
2023-09-27T02:57:50.584Z,97.1
2023-09-27T02:59:22.948Z,97.1
2023-09-27T03:00:53.559Z,97.1
2023-09-27T03:02:24.190Z,97.1
2023-09-27T03:03:54.701Z,97.1
2023-09-27T03:05:25.254Z,97.1
2023-09-27T03:06:55.782Z,97.2
2023-09-27T03:08:26.227Z,97.1
2023-09-27T03:09:56.861Z,97.1
2023-09-27T03:11:27.370Z,97.1
2023-09-27T03:12:57.889Z,97.1
2023-09-27T03:14:28.450Z,97.2
2023-09-27T03:15:59.498Z,97.1
2023-09-27T03:17:30.213Z,97
2023-09-27T03:19:00.883Z,97.1
2023-09-27T03:20:31.356Z,97.1
2023-09-27T03:22:01.823Z,97.1
2023-09-27T03:23:32.333Z,97.2
2023-09-27T03:25:02.890Z,97
2023-09-27T03:26:33.378Z,97.1
2023-09-27T03:28:03.933Z,97.2
2023-09-27T03:29:34.486Z,97
2023-09-27T03:31:05.031Z,97.1
2023-09-27T03:32:35.569Z,97
2023-09-27T03:34:06.019Z,97.1
2023-09-27T03:35:36.476Z,97.1
2023-09-27T03:37:07.096Z,97.1
2023-09-27T03:38:37.612Z,97.1
2023-09-27T03:40:08.114Z,97.1
2023-09-27T03:41:38.736Z,97.1
2023-09-27T03:43:09.387Z,97.2
2023-09-27T03:44:39.770Z,97.2
2023-09-27T03:46:10.282Z,97.1
2023-09-27T03:47:40.793Z,97.2
2023-09-27T03:49:11.639Z,97.1
2023-09-27T03:50:42.108Z,97.1
2023-09-27T03:52:12.623Z,97
2023-09-27T03:53:59.900Z,97.1
2023-09-27T03:55:30.320Z,97
2023-09-27T03:57:00.778Z,97
2023-09-27T03:58:31.384Z,97.1
2023-09-27T04:00:02.039Z,97.2
2023-09-27T04:01:32.635Z,97
2023-09-27T04:03:03.493Z,96.9
2023-09-27T04:04:34.115Z,97
2023-09-27T04:06:04.598Z,97
2023-09-27T04:07:35.024Z,97
2023-09-27T04:09:05.442Z,97
2023-09-27T04:10:35.953Z,97.1
2023-09-27T04:12:06.382Z,97
2023-09-27T04:13:36.840Z,97.1
2023-09-27T04:15:07.218Z,97.1
2023-09-27T04:16:37.639Z,97.1
2023-09-27T04:18:08.137Z,97
2023-09-27T04:19:38.579Z,97.1
2023-09-27T04:21:09.022Z,97.1
2023-09-27T04:22:39.482Z,97
2023-09-27T04:24:10.053Z,97.1
2023-09-27T04:25:40.487Z,97.1
2023-09-27T04:27:10.893Z,97.1
2023-09-27T04:28:41.335Z,97.1
2023-09-27T04:30:11.775Z,97.2
2023-09-27T04:31:42.352Z,97.2
2023-09-27T04:33:12.915Z,97.2
2023-09-27T04:34:43.409Z,97.1
2023-09-27T04:36:13.812Z,97
2023-09-27T04:37:44.236Z,97.1
2023-09-27T04:39:14.730Z,97.2
2023-09-27T04:40:45.201Z,97.2
2023-09-27T04:42:15.600Z,97.1
2023-09-27T04:43:46.301Z,97.3
2023-09-27T04:45:16.898Z,97.1
2023-09-27T04:46:47.369Z,97.1
2023-09-27T04:48:17.852Z,97.2
2023-09-27T04:49:48.426Z,97
2023-09-27T04:51:18.834Z,97
2023-09-27T04:52:49.260Z,97.2
2023-09-27T04:54:19.694Z,97.2
2023-09-27T04:55:50.205Z,97.1
2023-09-27T04:57:20.618Z,97.1
2023-09-27T04:58:51.093Z,97.1
2023-09-27T05:00:22.326Z,97
2023-09-27T05:01:53.084Z,97.2
2023-09-27T05:03:23.694Z,97.1
2023-09-27T05:04:57.172Z,97.2
2023-09-27T05:06:27.759Z,97.1
2023-09-27T05:07:58.364Z,97
2023-09-27T05:09:29.000Z,97.1
2023-09-27T05:10:59.476Z,97.1
2023-09-27T05:12:29.953Z,97.1
2023-09-27T05:14:00.487Z,97.1
2023-09-27T05:15:31.095Z,97.1
2023-09-27T05:17:01.686Z,97
2023-09-27T05:18:32.241Z,97
2023-09-27T05:20:02.723Z,96.9
2023-09-27T05:21:33.233Z,96.9
2023-09-27T05:23:03.791Z,97.1
2023-09-27T05:24:34.331Z,96.9
2023-09-27T05:26:04.824Z,97
2023-09-27T05:27:35.414Z,97
2023-09-27T05:29:05.977Z,97
2023-09-27T05:30:36.517Z,97
2023-09-27T05:32:07.201Z,97.1
2023-09-27T05:33:37.674Z,97.2
2023-09-27T05:35:08.127Z,96.9
2023-09-27T05:36:38.675Z,97.1
2023-09-27T05:38:09.194Z,97
2023-09-27T05:39:39.654Z,97.1
2023-09-27T05:41:10.146Z,97.2
2023-09-27T05:41:27.279Z,97.2
2023-09-27T05:43:01.420Z,97.3
2023-09-27T05:44:32.296Z,97.2
2023-09-27T05:46:02.946Z,97.2
2023-09-27T05:47:33.679Z,97.2
2023-09-27T05:49:04.262Z,96.9
2023-09-27T05:50:34.827Z,97
2023-09-27T05:52:05.315Z,97
2023-09-27T05:53:35.880Z,97
2023-09-27T05:55:06.363Z,97.2
2023-09-27T05:56:36.935Z,97.1
2023-09-27T05:58:07.501Z,97.1
2023-09-27T05:59:38.025Z,97
2023-09-27T06:01:08.603Z,97.1
2023-09-27T06:02:39.347Z,97.1
2023-09-27T06:04:10.784Z,97
2023-09-27T06:05:41.391Z,96.8
2023-09-27T06:07:12.103Z,97
2023-09-27T06:08:42.650Z,97
2023-09-27T06:10:13.144Z,97
2023-09-27T06:11:43.694Z,97
2023-09-27T06:13:14.160Z,96.9
2023-09-27T06:14:44.610Z,96.9
2023-09-27T06:16:15.200Z,97.1
2023-09-27T06:17:46.111Z,97
2023-09-27T06:19:16.770Z,97
2023-09-27T06:20:47.251Z,97
2023-09-27T06:22:17.811Z,97
2023-09-27T06:23:48.253Z,97
2023-09-27T06:25:20.336Z,96.9
2023-09-27T06:26:50.821Z,97.1
2023-09-27T06:28:21.374Z,97.1
2023-09-27T06:29:51.884Z,97.2
2023-09-27T06:31:23.121Z,97.1
2023-09-27T06:32:53.988Z,97.1
2023-09-27T06:34:24.557Z,97
2023-09-27T06:35:55.072Z,97
2023-09-27T06:37:25.510Z,97
2023-09-27T06:38:56.548Z,97.2
2023-09-27T06:40:27.062Z,97.1
2023-09-27T06:41:57.584Z,97
2023-09-27T06:43:28.239Z,97
2023-09-27T06:44:58.743Z,97
2023-09-27T06:46:48.480Z,96.8
2023-09-27T06:48:19.868Z,97
2023-09-27T06:49:50.659Z,97
2023-09-27T06:51:21.098Z,97.1
2023-09-27T06:53:07.326Z,97.1
2023-09-27T06:54:52.953Z,97.1
2023-09-27T06:56:23.429Z,97
2023-09-27T06:57:54.001Z,97
2023-09-27T06:59:24.474Z,96.9
2023-09-27T07:00:55.231Z,97.1
2023-09-27T07:02:25.941Z,97.1
2023-09-27T07:03:56.664Z,97
2023-09-27T07:05:27.437Z,97
2023-09-27T07:06:57.970Z,97
2023-09-27T07:08:28.554Z,96.9
2023-09-27T07:09:59.150Z,97
2023-09-27T07:11:29.694Z,96.9
2023-09-27T07:13:00.253Z,96.9
2023-09-27T07:14:30.844Z,97
2023-09-27T07:16:01.574Z,97.1
2023-09-27T07:17:32.571Z,96.9
2023-09-27T07:19:03.444Z,97
2023-09-27T07:20:34.021Z,96.8
2023-09-27T07:22:04.519Z,96.7
2023-09-27T07:23:35.509Z,97
2023-09-27T07:25:06.262Z,96.9
2023-09-27T07:26:36.737Z,96.7
2023-09-27T07:28:07.493Z,96.9
2023-09-27T07:29:37.996Z,96.7
2023-09-27T07:32:57.223Z,96.6
2023-09-27T07:34:27.970Z,96.7
2023-09-27T07:35:58.476Z,96.7
2023-09-27T07:37:29.003Z,96.9
2023-09-27T07:38:59.510Z,96.8
2023-09-27T07:40:30.085Z,97
2023-09-27T07:42:00.691Z,97.1
2023-09-27T07:43:31.202Z,96.8
2023-09-27T07:45:01.758Z,96.9
2023-09-27T07:46:32.419Z,96.9
2023-09-27T07:48:03.312Z,96.9
2023-09-27T07:49:33.990Z,96.9
2023-09-27T07:51:04.516Z,96.9
2023-09-27T07:52:35.045Z,96.9
2023-09-27T07:54:05.510Z,97
2023-09-27T07:55:36.007Z,97
2023-09-27T07:57:06.711Z,97
2023-09-27T07:58:37.238Z,97
2023-09-27T08:00:07.754Z,97
2023-09-27T08:03:26.590Z,96.8
2023-09-27T08:04:57.457Z,97
2023-09-27T08:06:28.225Z,96.7
2023-09-27T08:07:58.727Z,96.9
2023-09-27T08:09:41.297Z,96.8
2023-09-27T08:11:12.305Z,96.8
2023-09-27T08:12:43.068Z,96.9
2023-09-27T08:14:13.771Z,97
2023-09-27T08:15:44.236Z,96.7
2023-09-27T08:17:14.909Z,96.9
2023-09-27T08:18:45.542Z,96.7
2023-09-27T08:20:16.398Z,96.7
2023-09-27T08:21:47.171Z,96.9
2023-09-27T08:23:17.682Z,96.9
2023-09-27T08:24:48.290Z,96.9
2023-09-27T08:26:18.887Z,96.9
2023-09-27T08:27:49.442Z,96.9
2023-09-27T08:29:20.024Z,96.7
2023-09-27T08:30:50.732Z,96.8
2023-09-27T08:32:21.275Z,96.7
2023-09-27T08:33:51.893Z,96.8
2023-09-27T08:35:22.434Z,96.7
2023-09-27T08:36:52.990Z,96.8
2023-09-27T08:38:23.573Z,96.9
2023-09-27T08:39:54.166Z,96.8
2023-09-27T08:41:24.656Z,96.9
2023-09-27T08:42:55.369Z,96.7
2023-09-27T08:44:25.872Z,96.7
2023-09-27T08:45:56.498Z,96.7
2023-09-27T08:47:27.076Z,96.6
2023-09-27T08:48:58.040Z,96.7
2023-09-27T08:50:28.651Z,96.9
2023-09-27T08:51:59.119Z,96.7
2023-09-27T08:53:29.709Z,96.8
2023-09-27T08:55:00.284Z,96.7
2023-09-27T08:56:30.858Z,96.7
2023-09-27T08:58:01.308Z,96.9
2023-09-27T08:59:31.918Z,96.8
2023-09-27T09:01:02.661Z,96.8
2023-09-27T09:02:33.198Z,96.9
2023-09-27T09:04:04.069Z,96.6
2023-09-27T09:05:34.859Z,96.8
2023-09-27T09:07:05.473Z,96.7
2023-09-27T09:08:44.337Z,96.7
2023-09-27T09:10:25.502Z,96.7
2023-09-27T09:11:56.032Z,96.7
2023-09-27T09:13:26.520Z,96.9
2023-09-27T09:14:57.378Z,96.7
2023-09-27T09:16:27.930Z,96.7
2023-09-27T09:17:58.775Z,96.8
2023-09-27T09:19:46.170Z,96.5
2023-09-27T09:21:16.873Z,96.6
2023-09-27T09:22:47.404Z,96.8
2023-09-27T09:24:17.877Z,96.8
2023-09-27T09:25:48.295Z,96.7
2023-09-27T09:27:19.678Z,96.8
2023-09-27T09:28:53.115Z,96.7
2023-09-27T09:30:24.062Z,96.7
2023-09-27T09:31:54.722Z,96.8
2023-09-27T09:33:25.469Z,96.8
2023-09-27T09:34:56.118Z,96.7
2023-09-27T09:36:26.681Z,96.6
2023-09-27T09:37:57.354Z,96.7
2023-09-27T09:39:27.878Z,96.7
2023-09-27T09:40:58.434Z,96.8
2023-09-27T09:42:28.886Z,96.8
2023-09-27T09:43:59.379Z,96.8
2023-09-27T09:45:29.810Z,97
2023-09-27T09:47:00.238Z,96.8
2023-09-27T09:48:30.808Z,96.6
2023-09-27T09:50:01.583Z,96.8
2023-09-27T09:51:32.001Z,96.7
2023-09-27T09:55:03.232Z,96.8
2023-09-27T09:57:03.137Z,96.7
2023-09-27T09:58:45.182Z,96.7
2023-09-27T10:00:15.626Z,96.7
2023-09-27T10:01:46.119Z,96.7
2023-09-27T10:03:16.583Z,96.8
2023-09-27T10:04:47.088Z,96.7
2023-09-27T10:06:17.998Z,96.8
2023-09-27T10:07:58.675Z,96.7
2023-09-27T10:09:29.089Z,96.7
2023-09-27T10:10:59.501Z,96.7
2023-09-27T10:12:29.918Z,96.7
2023-09-27T10:14:00.354Z,96.8
2023-09-27T10:15:30.769Z,96.9
2023-09-27T10:17:01.180Z,96.8
2023-09-27T10:18:31.666Z,96.8
2023-09-27T10:20:02.246Z,96.8
2023-09-27T10:21:32.715Z,96.9
2023-09-27T10:23:03.173Z,96.9
2023-09-27T10:24:33.596Z,96.8
2023-09-27T10:26:04.010Z,96.8
2023-09-27T10:27:34.427Z,96.7
2023-09-27T10:29:05.109Z,96.8
2023-09-27T10:30:36.095Z,96.8
2023-09-27T10:32:06.546Z,96.8
2023-09-27T10:33:37.198Z,96.8
2023-09-27T10:35:07.728Z,96.9
2023-09-27T10:36:38.207Z,97
2023-09-27T10:38:10.011Z,96.8
2023-09-27T10:39:40.457Z,97.1
2023-09-27T10:41:10.976Z,96.8
2023-09-27T10:42:41.518Z,96.9
2023-09-27T10:44:12.001Z,96.8
2023-09-27T10:45:42.540Z,96.8
2023-09-27T10:47:13.103Z,96.9
2023-09-27T10:48:43.531Z,96.9
2023-09-27T10:50:14.188Z,97
2023-09-27T10:51:53.327Z,97.1
2023-09-27T10:53:35.818Z,97.2
2023-09-27T10:55:06.367Z,96.8
2023-09-27T10:56:36.912Z,96.9
2023-09-27T10:58:07.434Z,97.1
2023-09-27T10:59:37.913Z,97
2023-09-27T11:01:08.534Z,96.8
2023-09-27T11:02:39.349Z,96.8
2023-09-27T11:04:10.137Z,96.7
2023-09-27T11:05:40.717Z,96.8
2023-09-27T11:07:11.415Z,96.7
2023-09-27T11:08:42.012Z,96.8
2023-09-27T11:10:12.622Z,96.8
2023-09-27T11:11:43.111Z,97
2023-09-27T11:13:13.755Z,96.8
2023-09-27T11:14:44.583Z,96.9
2023-09-27T11:16:15.150Z,97
2023-09-27T11:17:45.772Z,96.9
2023-09-27T11:19:16.423Z,96.9
2023-09-27T11:20:47.075Z,96.8
2023-09-27T11:22:17.704Z,96.9
2023-09-27T11:23:48.225Z,97
2023-09-27T11:25:18.682Z,96.9
2023-09-27T11:26:49.250Z,97
2023-09-27T11:28:19.863Z,96.9
2023-09-27T11:29:50.404Z,96.8
2023-09-27T11:31:20.888Z,96.9
2023-09-27T11:32:51.860Z,96.9
2023-09-27T11:34:22.639Z,96.8
2023-09-27T11:35:53.137Z,96.7
2023-09-27T11:37:23.646Z,96.8
2023-09-27T11:38:54.182Z,96.9
2023-09-27T11:40:24.629Z,96.9
2023-09-27T11:40:41.521Z,96.8
2023-09-27T11:42:12.017Z,97
2023-09-27T11:43:42.430Z,97
2023-09-27T11:45:12.869Z,96.8
2023-09-27T11:46:43.480Z,96.9
2023-09-27T11:48:14.111Z,97
2023-09-27T11:49:44.637Z,97
2023-09-27T11:51:15.211Z,97.1
2023-09-27T11:52:45.730Z,96.8
2023-09-27T11:54:16.213Z,96.9
2023-09-27T11:55:46.861Z,96.9
2023-09-27T11:57:17.350Z,97
2023-09-27T11:58:47.876Z,96.8
2023-09-27T12:00:18.937Z,96.9
2023-09-27T12:01:49.458Z,96.9
2023-09-27T12:03:20.089Z,96.9
2023-09-27T12:04:51.282Z,97
2023-09-27T12:06:22.350Z,97
2023-09-27T12:07:53.825Z,96.9
2023-09-27T12:09:24.508Z,96.9
2023-09-27T12:10:55.013Z,96.9
2023-09-27T12:12:25.536Z,96.9
2023-09-27T12:13:56.407Z,96.8
2023-09-27T12:15:27.004Z,97
2023-09-27T12:16:57.518Z,97
2023-09-27T12:18:28.108Z,97
2023-09-27T12:19:58.665Z,96.9
2023-09-27T12:21:29.121Z,97
2023-09-27T12:22:59.878Z,97.1
2023-09-27T12:24:30.433Z,97
2023-09-27T12:26:00.995Z,97.1
2023-09-27T12:27:31.484Z,97
2023-09-27T12:29:02.005Z,97.1
2023-09-27T12:30:32.430Z,97.1
2023-09-27T12:32:02.973Z,97
2023-09-27T12:33:33.511Z,97.1
2023-09-27T12:35:04.093Z,97
2023-09-27T12:36:34.619Z,97.1
2023-09-27T12:39:38.669Z,97.1
2023-09-27T12:41:09.166Z,97.1
2023-09-27T12:42:39.775Z,97.1
2023-09-27T12:44:21.937Z,97
2023-09-27T12:45:53.164Z,97.1
2023-09-27T12:47:23.806Z,97
2023-09-27T12:48:54.907Z,97.1
2023-09-27T12:50:25.768Z,97.1
2023-09-27T12:51:56.228Z,97
2023-09-27T12:53:26.720Z,97.1
2023-09-27T12:54:57.417Z,97
2023-09-27T12:56:28.393Z,97.2
2023-09-27T12:57:58.936Z,97.1
2023-09-27T12:59:29.708Z,97.1
2023-09-27T13:01:00.742Z,97.1
2023-09-27T13:02:31.505Z,97.1
2023-09-27T13:04:02.877Z,97.2
2023-09-27T13:05:33.693Z,97.2
2023-09-27T13:07:04.362Z,97.1
2023-09-27T13:08:35.021Z,97.2
2023-09-27T13:10:05.635Z,97.2
2023-09-27T13:11:36.238Z,97.2
2023-09-27T13:13:06.926Z,97.1
2023-09-27T13:14:37.405Z,97.2
2023-09-27T13:16:07.928Z,97.2
2023-09-27T13:17:38.462Z,97.2
2023-09-27T13:19:09.031Z,97.2
2023-09-27T13:20:39.587Z,97.1
2023-09-27T13:22:10.101Z,97.2
2023-09-27T13:23:40.649Z,97.2
2023-09-27T13:25:11.305Z,97.1
2023-09-27T13:26:41.921Z,97.2
2023-09-27T13:28:12.588Z,97.1
2023-09-27T13:29:43.132Z,97.2
2023-09-27T13:30:00.058Z,97.2
2023-09-27T13:31:30.702Z,97.1
2023-09-27T13:33:01.488Z,97.2
2023-09-27T13:34:33.866Z,97.1
2023-09-27T13:36:04.513Z,97
2023-09-27T13:37:34.971Z,97.1
2023-09-27T13:39:05.437Z,97.1
2023-09-27T13:40:35.977Z,97.1
2023-09-27T13:42:06.536Z,97.1
2023-09-27T13:43:36.956Z,97.1
2023-09-27T13:45:07.602Z,97.3
2023-09-27T13:46:38.405Z,97.3
2023-09-27T13:48:09.525Z,97.2
2023-09-27T13:49:40.171Z,97.2
2023-09-27T13:51:10.691Z,97.2
2023-09-27T13:52:41.113Z,97.1
2023-09-27T13:54:11.575Z,97.2
2023-09-27T13:55:42.229Z,97.3
2023-09-27T13:57:12.701Z,97.2
2023-09-27T13:58:43.098Z,97.2
2023-09-27T14:00:13.564Z,97.2
2023-09-27T14:03:14.654Z,97.2
2023-09-27T14:04:45.337Z,97.3
2023-09-27T14:06:15.838Z,97.2
2023-09-27T14:07:46.329Z,97.2
2023-09-27T14:09:16.821Z,97.3
2023-09-27T14:10:47.346Z,97.3
2023-09-27T14:12:17.842Z,97.4
2023-09-27T14:13:48.225Z,97.4
2023-09-27T14:15:18.692Z,97.3
2023-09-27T14:16:49.217Z,97.5
2023-09-27T14:18:19.993Z,97.5
2023-09-27T14:19:50.837Z,97.5
2023-09-27T14:21:21.365Z,97.3
2023-09-27T14:22:51.888Z,97.3
2023-09-27T14:24:22.339Z,97.3
2023-09-27T14:25:52.853Z,97.2
2023-09-27T14:27:23.240Z,97.3
2023-09-27T14:28:53.701Z,97.3
2023-09-27T14:30:24.274Z,97.4
2023-09-27T14:31:54.807Z,97.4
2023-09-27T14:33:25.269Z,97.4
2023-09-27T14:34:59.333Z,97.3
2023-09-27T14:36:29.953Z,97.3
2023-09-27T14:38:00.433Z,97.3
2023-09-27T14:39:30.948Z,97.3
2023-09-27T14:41:01.512Z,97.2
2023-09-27T14:42:31.952Z,97.2
2023-09-27T14:44:02.432Z,97.3
2023-09-27T14:45:34.160Z,97.2
2023-09-27T14:47:04.697Z,97.2
2023-09-27T14:48:35.287Z,97.2
2023-09-27T14:50:05.789Z,97.3
2023-09-27T14:51:36.203Z,97.3
2023-09-27T14:53:06.650Z,97.3
2023-09-27T14:54:37.198Z,97.3
2023-09-27T14:56:07.704Z,97.4
2023-09-27T14:57:38.207Z,97.3
2023-09-27T14:59:08.721Z,97.4
2023-09-27T15:00:39.137Z,97.4
2023-09-27T15:02:09.646Z,97.4
2023-09-27T15:03:40.260Z,97.4
2023-09-27T15:05:10.869Z,97.3
2023-09-27T15:06:41.434Z,97.3
2023-09-27T15:08:11.859Z,97.4
2023-09-27T15:09:42.380Z,97.4
2023-09-27T15:11:12.820Z,97.4
2023-09-27T15:12:43.221Z,97.4
2023-09-27T15:14:13.787Z,97.4
2023-09-27T15:15:44.316Z,97.4
2023-09-27T15:17:14.796Z,97.4
2023-09-27T15:18:45.372Z,97.5
2023-09-27T15:20:16.001Z,97.5
2023-09-27T15:21:46.465Z,97.5
2023-09-27T15:23:16.879Z,97.5
2023-09-27T15:24:47.392Z,97.5
2023-09-27T15:26:17.873Z,97.5
2023-09-27T15:27:48.339Z,97.6
2023-09-27T15:29:18.755Z,97.5
2023-09-27T15:30:49.190Z,97.6
2023-09-27T15:32:19.656Z,97.6
2023-09-27T15:33:50.144Z,97.6
2023-09-27T15:35:20.772Z,97.7
2023-09-27T15:36:51.171Z,97.7
2023-09-27T15:38:21.582Z,97.7
2023-09-27T15:39:52.052Z,97.8
2023-09-27T15:41:22.573Z,97.7
2023-09-27T15:42:52.957Z,97.8
2023-09-27T15:44:23.366Z,97.7
2023-09-27T15:45:53.874Z,97.8
2023-09-27T15:47:24.306Z,97.8
2023-09-27T15:48:54.934Z,97.7
2023-09-27T15:50:25.373Z,97.7
2023-09-27T15:51:55.824Z,97.8
2023-09-27T15:52:12.807Z,97.8
2023-09-27T15:53:43.299Z,97.8
2023-09-27T15:55:13.854Z,97.8
2023-09-27T15:56:44.374Z,97.8
2023-09-27T15:58:14.860Z,97.7
2023-09-27T15:59:45.408Z,97.8
2023-09-27T16:01:15.922Z,97.8
2023-09-27T16:02:46.508Z,97.8
2023-09-27T16:04:17.091Z,97.8
2023-09-27T16:05:47.575Z,97.8
2023-09-27T16:07:17.999Z,97.8
2023-09-27T16:08:48.454Z,97.8
2023-09-27T16:10:18.940Z,97.8
2023-09-27T16:11:49.578Z,97.9
2023-09-27T16:13:20.128Z,97.8
2023-09-27T16:14:50.624Z,97.8
2023-09-27T16:16:21.269Z,97.8
2023-09-27T16:17:51.929Z,97.9
2023-09-27T16:19:22.563Z,97.9
2023-09-27T16:20:53.009Z,97.9
2023-09-27T16:22:23.575Z,97.8
2023-09-27T16:23:58.132Z,97.8
2023-09-27T16:25:29.042Z,97.9
2023-09-27T16:26:59.637Z,97.9
2023-09-27T16:28:30.717Z,97.9
2023-09-27T16:30:02.669Z,97.9
2023-09-27T16:31:35.491Z,97.9
2023-09-27T16:33:06.652Z,97.9
2023-09-27T16:34:37.553Z,97.9
2023-09-27T16:36:08.101Z,97.9
2023-09-27T16:37:38.682Z,97.9
2023-09-27T16:39:09.264Z,97.9
2023-09-27T16:40:39.814Z,97.9
2023-09-27T16:42:10.508Z,97.9
2023-09-27T16:43:41.110Z,97.9
2023-09-27T16:45:11.621Z,97.9
2023-09-27T16:46:42.113Z,97.9
2023-09-27T16:48:12.643Z,97.9
2023-09-27T16:49:43.111Z,97.9
2023-09-27T16:51:13.661Z,98
2023-09-27T16:52:44.235Z,97.9
2023-09-27T16:54:14.964Z,98
2023-09-27T16:55:45.597Z,98
2023-09-27T16:57:16.256Z,98
2023-09-27T16:58:46.791Z,98
2023-09-27T17:00:17.368Z,98
2023-09-27T17:01:47.960Z,97.9
2023-09-27T17:03:18.574Z,98
2023-09-27T17:04:49.197Z,97.9
2023-09-27T17:06:19.892Z,98
2023-09-27T17:07:50.455Z,97.9
2023-09-27T17:09:20.900Z,98
2023-09-27T17:10:51.517Z,98
2023-09-27T17:12:22.079Z,98
2023-09-27T17:13:53.378Z,98
2023-09-27T17:15:24.342Z,98.1
2023-09-27T17:16:54.939Z,98
2023-09-27T17:18:25.545Z,98.1
2023-09-27T17:19:56.062Z,98
2023-09-27T17:21:26.624Z,98
2023-09-27T17:22:57.129Z,98.1
2023-09-27T17:24:27.789Z,98.1
2023-09-27T17:25:58.261Z,98.1
2023-09-27T17:27:28.848Z,98.1
2023-09-27T17:28:59.429Z,98.1
2023-09-27T17:30:29.973Z,98.1
2023-09-27T17:32:00.621Z,98.1
2023-09-27T17:33:31.611Z,98.1
2023-09-27T17:35:02.217Z,98.1
2023-09-27T17:36:32.676Z,98.1
2023-09-27T17:38:03.178Z,98.1
2023-09-27T17:39:33.826Z,98.1
2023-09-27T17:41:04.305Z,98.1
2023-09-27T17:44:22.195Z,98.1
2023-09-27T17:45:52.686Z,98.2
2023-09-27T17:47:23.265Z,98.1
2023-09-27T17:48:53.796Z,98.1
2023-09-27T17:50:24.280Z,98.1
2023-09-27T17:51:54.714Z,98.2
2023-09-27T17:53:25.234Z,98.2
2023-09-27T17:54:55.765Z,98.2
2023-09-27T17:56:26.310Z,98.2
2023-09-27T17:57:56.858Z,98.2
2023-09-27T17:59:27.311Z,98.2
2023-09-27T18:00:57.727Z,98.2
2023-09-27T18:02:28.552Z,98.2
2023-09-27T18:03:59.887Z,98.2
2023-09-27T18:05:30.535Z,98.2
2023-09-27T18:07:00.968Z,98.2
2023-09-27T18:08:31.474Z,98.2
2023-09-27T18:10:01.900Z,98.2
2023-09-27T18:11:32.319Z,98.2
2023-09-27T18:13:02.881Z,98.2
2023-09-27T18:14:33.364Z,98.3
2023-09-27T18:16:03.840Z,98.3
2023-09-27T18:17:34.469Z,98.3
2023-09-27T18:19:05.146Z,98.2
2023-09-27T18:20:35.575Z,98.3
2023-09-27T18:22:06.179Z,98.3
2023-09-27T18:23:36.743Z,98.3
2023-09-27T18:25:07.236Z,98.3
2023-09-27T18:26:37.761Z,98.3
2023-09-27T18:28:08.188Z,98.3
2023-09-27T18:29:38.590Z,98.3
2023-09-27T18:31:09.152Z,98.3
2023-09-27T18:32:39.695Z,98.3
2023-09-27T18:34:10.254Z,98.3
2023-09-27T18:35:40.792Z,98.3
2023-09-27T18:37:11.509Z,98.3
2023-09-27T18:38:42.024Z,98.3
2023-09-27T18:40:12.443Z,98.3
2023-09-27T18:41:42.962Z,98.3
2023-09-27T18:43:13.509Z,98.3
2023-09-27T18:44:43.916Z,98.3
2023-09-27T18:46:14.506Z,98.3
2023-09-27T18:47:45.137Z,98.3
2023-09-27T18:49:18.155Z,98.4
2023-09-27T18:50:48.667Z,98.3
2023-09-27T18:52:19.257Z,98.4
2023-09-27T18:53:51.416Z,98.4
2023-09-27T18:55:22.595Z,98.3
2023-09-27T18:56:53.052Z,98.3
2023-09-27T18:58:23.960Z,98.3
2023-09-27T18:59:55.119Z,98.4
2023-09-27T19:01:25.675Z,98.3
2023-09-27T19:02:56.434Z,98.4
2023-09-27T19:04:27.300Z,98.4
2023-09-27T19:05:58.494Z,98.4
2023-09-27T19:07:29.173Z,98.4
2023-09-27T19:08:59.955Z,98.4
2023-09-27T19:10:30.624Z,98.4
2023-09-27T19:12:01.134Z,98.4
2023-09-27T19:13:31.819Z,98.4
2023-09-27T19:15:02.342Z,98.4
2023-09-27T19:16:32.845Z,98.4
2023-09-27T19:18:03.696Z,98.4
2023-09-27T19:19:34.250Z,98.5
2023-09-27T19:21:04.855Z,98.5
2023-09-27T19:22:35.482Z,98.5
2023-09-27T19:24:05.945Z,98.4
2023-09-27T19:25:36.582Z,98.5
2023-09-27T19:27:07.084Z,98.5
2023-09-27T19:28:38.773Z,98.5
2023-09-27T19:30:09.324Z,98.5
2023-09-27T19:33:27.150Z,98.5
2023-09-27T19:34:57.617Z,98.5
2023-09-27T19:36:28.216Z,98.5
2023-09-27T19:37:58.702Z,98.4
2023-09-27T19:39:29.145Z,98.5
2023-09-27T19:40:59.648Z,98.5
2023-09-27T19:42:30.124Z,98.5
2023-09-27T19:44:00.765Z,98.5
2023-09-27T19:45:31.255Z,98.5
2023-09-27T19:47:01.919Z,98.5
2023-09-27T19:48:32.380Z,98.5
2023-09-27T19:50:02.863Z,98.5
2023-09-27T19:51:33.680Z,98.5
2023-09-27T19:53:04.435Z,98.5
2023-09-27T19:54:34.993Z,98.5
2023-09-27T19:56:05.473Z,98.5
2023-09-27T19:57:36.022Z,98.5
2023-09-27T19:59:06.715Z,98.5
2023-09-27T20:00:37.283Z,98.4
2023-09-27T20:02:07.757Z,98.5
2023-09-27T20:03:38.284Z,98.4
2023-09-27T20:05:08.898Z,98.4
2023-09-27T20:06:39.368Z,98.4
2023-09-27T20:08:09.863Z,98.4
2023-09-27T20:09:40.313Z,98.4
2023-09-27T20:11:10.881Z,98.4
2023-09-27T20:12:41.415Z,98.3
2023-09-27T20:14:11.995Z,98.4
2023-09-27T20:15:42.610Z,98.3
2023-09-27T20:17:13.513Z,98.4
2023-09-27T20:18:43.979Z,98.3
2023-09-27T20:20:14.393Z,98.4
2023-09-27T20:21:44.788Z,98.3
2023-09-27T20:23:15.232Z,98.4
2023-09-27T20:24:45.636Z,98.4
2023-09-27T20:26:16.048Z,98.4
2023-09-27T20:27:46.520Z,98.3
2023-09-27T20:29:17.172Z,98.4
2023-09-27T20:30:47.669Z,98.4
2023-09-27T20:32:18.207Z,98.4